Latest Weather Observations for Marree Airport

IDS60801

Issued at 8:01 am CDT Sunday 26 March 2017 (issued every 30 minutes, with the page automatically refreshed every 10 minutes)

About weather observations | Map of weather stations | Latest weather observations for SA | Other Formats
Station Details ID: 017126 Name: MARREE AERO Lat: -29.66 Lon: 138.07 Height: 50.0 m
Data from the previous 72 hours. | See also: Recent months at Marree Airport
Date/Time
CDT
Temp
°C
App
Temp
°C
Dew
Point
°C
Rel
Hum
%
Delta-T
°C
Wind Press
QNH
hPa
Press
MSL
hPa
Rain since
9am
mm
Dir  Spd
km/h
Gust
km/h
Spd
kts
Gust
kts
26/08:00am 26.0 23.3 10.2 37 8.8 SSE 15 19 8 10 1011.6 1011.3 0.0
26/07:30am 25.1 22.0 10.2 39 8.3 SSE 17 19 9 10 1011.4 1011.1 0.0
26/07:00am 24.7 21.5 9.8 39 8.2 S 17 19 9 10 1011.0 1010.7 0.0
26/06:30am 24.9 21.5 9.2 37 8.6 SE 17 17 9 9 1010.9 1010.6 0.0
26/06:00am 25.8 22.5 9.6 36 8.9 SSE 17 17 9 9 1010.8 1010.5 0.0
26/05:30am 25.0 22.3 8.9 36 8.7 SSE 13 15 7 8 1010.5 1010.2 0.0
26/05:00am 26.3 23.7 9.2 34 9.4 SE 13 17 7 9 1010.3 1010.0 0.0
26/04:30am 26.7 23.0 9.5 34 9.5 SSE 19 28 10 15 1010.0 1009.7 0.0
26/04:00am 25.0 23.0 8.5 35 8.9 ESE 9 11 5 6 1010.0 1009.7 0.0
26/03:30am 25.4 22.9 8.4 34 9.2 SSE 11 13 6 7 1010.0 1009.7 0.0
26/03:00am 27.4 24.4 9.3 32 10.0 SSE 15 17 8 9 1010.0 1009.7 0.0
26/02:30am 27.6 24.2 9.0 31 10.3 SSE 17 20 9 11 1009.9 1009.6 0.0
26/02:00am 28.3 24.5 9.1 30 10.6 SSE 19 20 10 11 1010.1 1009.8 0.0
26/01:30am 28.5 25.0 8.7 29 10.9 S 17 19 9 10 1010.4 1010.1 0.0
26/01:00am 27.9 25.4 8.2 29 10.7 S 11 13 6 7 1010.8 1010.5 0.0
26/12:30am 28.4 25.4 7.6 27 11.2 SSE 13 15 7 8 1010.8 1010.5 0.0
26/12:00am 30.0 25.7 7.8 25 12.1 SSE 20 22 11 12 1011.0 1010.7 0.0
 
Date/Time
CDT
Temp
°C
App
Temp
°C
Dew
Point
°C
Rel
Hum
%
Delta-T
°C
Wind Press
QNH
hPa
Press
MSL
hPa
Rain since
9am
mm
Dir  Spd
km/h
Gust
km/h
Spd
kts
Gust
kts
25/11:30pm 29.4 25.2 5.5 22 12.5 SE 17 20 9 11 1011.2 1010.9 0.0
25/11:00pm 31.8 26.7 6.1 20 13.8 SSE 22 26 12 14 1011.0 1010.7 0.0
25/10:30pm 32.3 27.4 5.0 18 14.4 S 20 24 11 13 1010.9 1010.6 0.0
25/10:00pm 32.4 27.5 4.2 17 14.7 S 19 20 10 11 1010.7 1010.4 0.0
25/09:30pm 33.5 28.6 4.2 16 15.4 S 19 22 10 12 1010.3 1010.0 0.0
25/09:00pm 34.0 29.5 6.3 18 15.1 S 19 20 10 11 1010.0 1009.7 0.0
25/08:30pm 35.1 30.7 7.2 18 15.5 S 20 26 11 14 1009.5 1009.2 0.0
25/08:00pm 36.1 31.1 8.0 18 15.9 S 24 30 13 16 1008.9 1008.7 0.0
25/07:30pm 37.3 33.3 8.2 17 16.6 SSE 19 30 10 16 1008.5 1008.3 0.0
25/07:00pm 39.0 35.3 4.4 12 18.8 SSE 13 17 7 9 1008.2 1008.0 0.0
25/06:30pm 39.2 35.3 3.4 11 19.2 SSE 13 20 7 11 1008.0 1007.8 0.0
25/06:00pm 40.3 36.7 2.8 10 20.0 S 11 17 6 9 1007.9 1007.7 0.0
25/05:30pm 40.9 37.4 3.3 10 20.3 S 11 20 6 11 1007.7 1007.5 0.0
25/05:00pm 40.4 36.8 2.9 10 20.0 SE 11 17 6 9 1007.8 1007.6 0.0
25/04:30pm 40.9 37.7 3.3 10 20.3 SE 9 19 5 10 1007.9 1007.7 0.0
25/04:00pm 41.0 37.5 3.4 10 20.3 E 11 22 6 12 1008.1 1007.9 0.0
25/03:30pm 41.0 37.1 3.4 10 20.3 SSW 13 19 7 10 1008.2 1008.0 0.0
25/03:00pm 40.1 37.3 5.3 12 19.3 NW 9 13 5 7 1008.6 1008.4 0.0
25/02:30pm 39.9 38.0 5.1 12 19.2 NE 4 13 2 7 1009.0 1008.8 0.0
25/02:00pm 39.4 36.4 5.9 13 18.6 SSE 11 19 6 10 1009.6 1009.3 0.0
25/01:30pm 39.0 35.8 6.7 14 18.1 SSW 13 20 7 11 1010.0 1009.7 0.0
25/01:00pm 38.6 37.8 8.3 16 17.4 WSW 2 7 1 4 1010.5 1010.2 0.0
25/12:30pm 37.9 36.1 9.5 18 16.5 SE 9 19 5 10 1011.1 1010.8 0.0
25/12:00pm 37.2 35.3 10.5 20 15.7 ENE 11 17 6 9 1011.4 1011.1 0.0
25/11:30am 35.9 34.9 13.4 26 13.8 ENE 11 20 6 11 1011.8 1011.5 0.0
25/11:00am 34.4 32.2 13.3 28 12.8 E 17 22 9 12 1012.1 1011.8 0.0
25/10:30am 33.3 30.6 13.4 30 12.1 E 20 28 11 15 1012.1 1011.8 0.0
25/10:00am 30.7 28.4 13.0 33 10.5 E 17 20 9 11 1012.2 1011.9 0.0
25/09:30am 29.0 27.5 12.0 35 9.9 SE 11 17 6 9 1012.1 1011.8 0.0
25/09:00am 28.4 26.5 11.9 36 9.6 SSE 13 17 7 9 1011.9 1011.6 0.0
25/08:30am 24.2 22.1 11.2 44 7.3 SSE 13 15 7 8 1011.6 1011.3 0.0
25/08:00am 23.8 21.4 11.5 46 6.9 SSE 15 17 8 9 1011.3 1011.0 0.0
25/07:30am 22.8 19.8 10.6 46 6.7 SSE 17 19 9 10 1010.9 1010.6 0.0
25/07:00am 22.3 19.7 9.5 44 6.9 SE 13 15 7 8 1010.6 1010.3 0.0
25/06:30am 22.6 20.0 9.4 43 7.1 SE 13 15 7 8 1010.2 1009.9 0.0
25/06:00am 22.5 20.3 9.3 43 7.1 SE 11 15 6 8 1010.0 1009.7 0.0
25/05:30am 22.5 19.8 9.0 42 7.2 SE 13 15 7 8 1009.8 1009.5 0.0
25/05:00am 22.8 20.2 9.2 42 7.3 SE 13 15 7 8 1009.8 1009.5 0.0
25/04:30am 23.0 19.6 9.0 41 7.5 SSE 17 19 9 10 1009.7 1009.4 0.0
25/04:00am 24.2 21.0 9.8 40 7.9 SSE 17 17 9 9 1009.8 1009.5 0.0
25/03:30am 24.1 21.5 9.3 39 8.1 S 13 15 7 8 1009.7 1009.4 0.0
25/03:00am 23.7 21.3 8.6 38 8.1 SSE 11 13 6 7 1009.9 1009.6 0.0
25/02:30am 25.2 22.3 9.5 37 8.6 SSE 15 17 8 9 1010.0 1009.7 0.0
25/02:00am 26.4 23.5 9.7 35 9.2 SSE 15 15 8 8 1010.3 1010.0 0.0
25/01:30am 26.6 23.0 9.9 35 9.3 S 19 20 10 11 1010.6 1010.3 0.0
25/01:00am 26.0 23.0 9.4 35 9.1 SSE 15 17 8 9 1010.9 1010.6 0.0
25/12:30am 26.6 23.7 9.5 34 9.5 SSE 15 17 8 9 1011.4 1011.1 0.0
25/12:00am 28.8 25.2 10.0 31 10.6 S 19 20 10 11 1011.5 1011.2 0.0
 
Date/Time
CDT
Temp
°C
App
Temp
°C
Dew
Point
°C
Rel
Hum
%
Delta-T
°C
Wind Press
QNH
hPa
Press
MSL
hPa
Rain since
9am
mm
Dir  Spd
km/h
Gust
km/h
Spd
kts
Gust
kts
24/11:30pm 28.5 24.6 8.7 29 10.9 S 19 20 10 11 1011.5 1011.2 0.0
24/11:00pm 29.5 25.6 8.5 27 11.6 S 19 24 10 13 1011.5 1011.2 0.0
24/10:30pm 29.5 25.7 9.1 28 11.4 SSE 19 20 10 11 1011.4 1011.1 0.0
24/10:00pm 30.7 26.9 9.0 26 12.1 SSE 19 24 10 13 1011.1 1010.8 0.0
24/09:30pm 31.9 27.6 9.4 25 12.7 S 22 26 12 14 1010.8 1010.5 0.0
24/09:00pm 32.7 28.4 10.7 26 12.8 S 24 32 13 17 1010.5 1010.2 0.0
24/08:30pm 33.3 30.1 11.8 27 12.7 S 20 26 11 14 1010.1 1009.8 0.0
24/08:00pm 33.8 30.6 9.8 23 13.8 SSE 17 28 9 15 1009.6 1009.3 0.0
24/07:30pm 34.5 32.2 9.0 21 14.5 SSE 11 15 6 8 1009.5 1009.2 0.0
24/07:00pm 35.8 33.6 9.3 20 15.2 ESE 11 15 6 8 1009.2 1009.0 0.0
24/06:30pm 36.2 33.7 9.7 20 15.4 SE 13 20 7 11 1008.8 1008.6 0.0
24/06:00pm 37.0 34.1 9.6 19 15.9 SE 15 22 8 12 1008.9 1008.7 0.0
24/05:30pm 37.0 33.7 7.9 17 16.5 SSE 15 20 8 11 1008.9 1008.7 0.0
24/05:00pm 37.5 34.5 9.2 18 16.4 SSE 15 22 8 12 1009.1 1008.9 0.0
24/04:30pm 37.1 35.0 9.6 19 16.0 ENE 11 17 6 9 1009.0 1008.8 0.0
24/04:00pm 37.3 35.6 9.8 19 16.0 SSE 9 17 5 9 1009.1 1008.9 0.0
24/03:30pm 36.5 34.4 9.9 20 15.5 ESE 11 20 6 11 1009.1 1008.9 0.0
24/03:00pm 37.1 34.8 10.4 20 15.7 E 13 20 7 11 1009.5 1009.2 0.0
24/02:30pm 36.3 34.4 10.5 21 15.2 ENE 11 20 6 11 1009.8 1009.5 0.0
24/02:00pm 35.9 33.0 10.9 22 14.7 NE 17 24 9 13 1010.1 1009.8 0.0
24/01:30pm 35.2 32.5 11.6 24 14.0 E 17 26 9 14 1010.7 1010.4 0.0
24/01:00pm 35.2 32.1 12.2 25 13.8 E 20 30 11 16 1011.2 1010.9 0.0
24/12:30pm 34.8 32.0 12.5 26 13.4 NE 19 28 10 15 1011.6 1011.3 0.0
24/12:00pm 33.9 31.4 13.4 29 12.4 ENE 19 30 10 16 1012.2 1011.9 0.0
24/11:30am 33.1 31.0 13.7 31 11.8 E 17 24 9 13 1012.5 1012.2 0.0
24/11:00am 31.7 29.2 13.5 33 11.0 ESE 19 26 10 14 1012.6 1012.3 0.0
24/10:30am 32.0 29.7 14.2 34 10.9 ESE 19 24 10 13 1012.8 1012.5 0.0
24/10:00am 29.4 27.2 13.2 37 9.6 SE 17 22 9 12 1012.8 1012.5 0.0
24/09:30am 27.2 25.0 13.2 42 8.2 SE 17 22 9 12 1012.9 1012.6 0.0
24/09:00am 26.6 24.4 13.3 43 7.8 SE 17 24 9 13 1012.7 1012.4 0.0
24/08:30am 26.0 24.0 12.8 44 7.7 SSE 15 19 8 10 1012.7 1012.4 0.0
24/08:00am 24.5 21.7 12.5 47 6.9 SSE 19 20 10 11 1012.5 1012.2 0.0
24/07:30am 21.7 19.2 11.1 51 5.9 SSE 15 17 8 9 1012.2 1011.9 0.0
24/07:00am 20.6 18.2 10.1 51 5.7 SSE 13 15 7 8 1011.9 1011.6 0.0
24/06:30am 21.0 18.6 9.9 49 6.0 SSE 13 15 7 8 1011.9 1011.6 0.0
24/06:00am 21.5 18.7 10.0 48 6.2 SSE 15 15 8 8 1011.8 1011.5 0.0
24/05:30am 22.3 19.5 10.1 46 6.7 SSE 15 17 8 9 1011.7 1011.4 0.0
24/05:00am 22.7 19.7 10.5 46 6.7 SSE 17 19 9 10 1011.7 1011.4 0.0
24/04:30am 23.4 20.4 10.5 44 7.1 SSE 17 19 9 10 1011.8 1011.5 0.0
24/04:00am 23.9 20.9 10.6 43 7.4 SSE 17 19 9 10 1011.8 1011.5 0.0
24/03:30am 24.0 21.0 10.7 43 7.4 SSE 17 19 9 10 1011.8 1011.5 0.0
24/03:00am 24.1 21.4 10.4 42 7.6 SSE 15 17 8 9 1012.0 1011.7 0.0
24/02:30am 23.7 21.0 10.4 43 7.4 SSE 15 15 8 8 1012.2 1011.9 0.0
24/02:00am 24.0 21.2 9.9 41 7.7 SSE 15 15 8 8 1012.4 1012.1 0.0
24/01:30am 24.9 22.2 10.4 40 8.1 SSE 15 17 8 9 1012.6 1012.3 0.0
24/01:00am 25.2 22.5 10.3 39 8.3 SSE 15 17 8 9 1012.9 1012.6 0.0
24/12:30am 25.9 23.5 10.1 37 8.8 SSE 13 15 7 8 1013.2 1012.9 0.0
24/12:00am 26.5 23.8 10.2 36 9.1 SSE 15 19 8 10 1013.3 1013.0 0.0
 
Date/Time
CDT
Temp
°C
App
Temp
°C
Dew
Point
°C
Rel
Hum
%
Delta-T
°C
Wind Press
QNH
hPa
Press
MSL
hPa
Rain since
9am
mm
Dir  Spd
km/h
Gust
km/h
Spd
kts
Gust
kts
23/11:30pm 27.3 23.8 10.1 34 9.6 SE 19 24 10 13 1013.5 1013.2 0.0
23/11:00pm 27.8 24.8 10.5 34 9.8 SSE 17 20 9 11 1013.4 1013.1 0.0
23/10:30pm 28.1 25.5 10.8 34 9.8 SSE 15 19 8 10 1013.2 1012.9 0.0
23/10:00pm 29.3 26.1 11.4 33 10.3 S 19 22 10 12 1013.0 1012.7 0.0
23/09:30pm 29.7 26.3 11.2 31 10.7 SSE 20 26 11 14 1012.8 1012.5 0.0
23/09:00pm 30.7 26.3 11.6 31 11.1 S 26 32 14 17 1012.4 1012.1 0.0
23/08:30pm 31.5 28.7 11.3 29 11.8 SSW 17 20 9 11 1011.9 1011.6 0.0
23/08:00pm 31.8 29.2 9.3 25 12.7 SSE 13 15 7 8 1011.5 1011.2 0.0
23/07:30pm 33.1 29.9 9.8 24 13.4 SSE 17 20 9 11 1011.2 1010.9 0.0
23/07:00pm 34.0 31.0 10.6 24 13.6 SE 17 20 9 11 1010.9 1010.6 0.0
23/06:30pm 34.4 31.3 10.3 23 14.0 SE 17 24 9 13 1010.7 1010.4 0.0
23/06:00pm 34.6 32.7 10.4 23 14.1 SSE 11 22 6 12 1010.7 1010.4 0.0
23/05:30pm 35.3 32.4 11.0 23 14.3 SSE 17 24 9 13 1010.6 1010.3 0.0
23/05:00pm 35.5 33.4 11.2 23 14.4 ESE 13 20 7 11 1010.7 1010.4 0.0
23/04:30pm 34.7 32.6 11.2 24 13.9 SE 13 19 7 10 1010.8 1010.5 0.0
23/04:00pm 34.8 33.5 11.2 24 13.9 SSE 9 19 5 10 1010.9 1010.6 0.0
23/03:30pm 34.8 32.3 11.2 24 13.9 SSW 15 24 8 13 1011.3 1011.0 0.0
23/03:00pm 34.0 32.5 11.8 26 13.2 SSW 11 24 6 13 1011.7 1011.4 0.0
23/02:30pm 33.6 31.0 12.0 27 12.8 SSE 17 26 9 14 1012.1 1011.8 0.0
23/02:00pm 33.7 31.9 12.1 27 12.8 S 13 22 7 12 1012.4 1012.1 0.0
23/01:30pm 32.7 31.0 12.3 28 12.1 SSW 13 19 7 10 1012.9 1012.6 0.0
23/01:00pm 32.6 31.4 12.8 30 11.8 S 11 20 6 11 1013.4 1013.1 0.0
23/12:30pm 32.6 31.6 13.3 31 11.6 ENE 11 20 6 11 1013.8 1013.5 0.0
23/12:00pm 32.3 31.3 13.5 32 11.4 SE 11 24 6 13 1014.1 1013.8 0.0
23/11:30am 31.0 29.2 13.3 34 10.6 SE 15 20 8 11 1014.6 1014.3 0.0
23/11:00am 29.4 27.3 13.6 38 9.5 SE 17 24 9 13 1014.8 1014.5 0.0
23/10:30am 28.7 26.3 13.8 40 8.9 SE 19 26 10 14 1014.7 1014.4 0.0
23/10:00am 27.2 24.6 13.9 44 7.9 SE 20 26 11 14 1014.8 1014.5 0.0
23/09:30am 26.7 24.2 14.1 46 7.5 SE 20 26 11 14 1014.8 1014.5 0.0
23/09:00am 25.5 23.6 14.3 50 6.7 SSE 17 20 9 11 1014.6 1014.3 0.0
23/08:30am 23.7 21.7 13.8 53 5.8 SSE 17 20 9 11 1014.3 1014.0 0.0

Other Formats:

Comma delimited format used in spreadsheet applications
http://www.bom.gov.au/fwo/IDS60801/IDS60801.95480.axf

JavaScript Object Notation format (JSON) in row-major order
http://www.bom.gov.au/fwo/IDS60801/IDS60801.95480.json